Time;durP1;ratioP1;P1;durP2;ratioP2;P2;SDS_P1;SDS_P2;PMS_P1;PMS_P2;Temp;Humidity;BMP_temperature;BMP_pressure;BME280_temperature;BME280_humidity;BME280_pressure;Samples;Min_cycle;Max_cycle;Signal;HPM_P1;HPM_P2
2021/08/29 00:00:54;;;;;;;24.05;13.05;;;;;;;;;;5101168;27;20062;-65
2021/08/29 00:03:21;;;;;;;24.58;14.63;;;;;;;;;;5103374;28;20079;-65
2021/08/29 00:05:48;;;;;;;21.90;12.88;;;;;;;;;;5105638;28;20131;-65
2021/08/29 00:08:14;;;;;;;21.73;13.63;;;;;;;;;;5101327;28;20086;-65
2021/08/29 00:10:41;;;;;;;23.90;12.70;;;;;;;;;;5097667;28;20075;-65
2021/08/29 00:13:07;;;;;;;24.90;13.60;;;;;;;;;;5098551;27;20507;-65
2021/08/29 00:15:34;;;;;;;25.38;13.10;;;;;;;;;;5099736;28;20082;-65
2021/08/29 00:18:01;;;;;;;19.70;12.57;;;;;;;;;;5102244;28;20131;-65
2021/08/29 00:20:27;;;;;;;28.35;13.50;;;;;;;;;;5096119;28;20102;-65
2021/08/29 00:22:54;;;;;;;24.25;12.70;;;;;;;;;;5096922;28;20039;-65
2021/08/29 00:25:20;;;;;;;24.67;12.20;;;;;;;;;;5098566;28;20094;-65
2021/08/29 00:27:47;;;;;;;21.92;12.10;;;;;;;;;;5097525;28;20071;-65
2021/08/29 00:30:14;;;;;;;18.23;11.13;;;;;;;;;;5096902;27;20985;-65
2021/08/29 00:32:43;;;;;;;24.23;11.60;;;;;;;;;;5104006;28;20070;-65
2021/08/29 00:35:10;;;;;;;22.95;12.48;;;;;;;;;;5104822;28;20163;-65
2021/08/29 00:37:37;;;;;;;19.83;11.43;;;;;;;;;;5101938;28;20072;-66
2021/08/29 00:40:03;;;;;;;19.85;11.60;;;;;;;;;;5101887;27;20132;-65
2021/08/29 00:42:30;;;;;;;20.67;11.75;;;;;;;;;;5101878;28;20134;-66
2021/08/29 00:44:57;;;;;;;25.13;12.13;;;;;;;;;;5108918;27;20126;-65
2021/08/29 00:47:23;;;;;;;20.30;12.37;;;;;;;;;;5102448;28;20122;-65
2021/08/29 00:49:50;;;;;;;22.73;12.48;;;;;;;;;;5110695;27;20483;-65
2021/08/29 00:52:16;;;;;;;21.25;11.55;;;;;;;;;;5102042;28;20526;-65
2021/08/29 00:54:43;;;;;;;19.53;11.77;;;;;;;;;;5099080;27;20130;-65
2021/08/29 00:57:10;;;;;;;23.17;11.57;;;;;;;;;;5103995;28;20122;-65
2021/08/29 00:59:38;;;;;;;18.88;11.80;;;;;;;;;;5096319;28;20079;-65
2021/08/29 01:02:10;;;;;;;18.92;11.38;;;;;;;;;;5109810;27;20096;-65
2021/08/29 01:04:46;;;;;;;19.83;11.60;;;;;;;;;;5087577;28;20052;-65
2021/08/29 01:07:22;;;;;;;26.52;11.85;;;;;;;;;;5099719;28;20140;-65
2021/08/29 01:09:52;;;;;;;18.13;10.98;;;;;;;;;;5101029;28;20094;-65
2021/08/29 01:12:22;;;;;;;18.38;10.77;;;;;;;;;;5095001;28;20086;-65
2021/08/29 01:14:50;;;;;;;18.70;11.00;;;;;;;;;;5101541;28;20127;-65
2021/08/29 01:17:17;;;;;;;18.08;10.68;;;;;;;;;;5101846;28;20563;-64
2021/08/29 01:19:56;;;;;;;16.75;10.38;;;;;;;;;;5096767;27;20968;-65
2021/08/29 01:22:23;;;;;;;19.05;11.38;;;;;;;;;;5102150;28;20591;-65
2021/08/29 01:24:50;;;;;;;18.05;10.13;;;;;;;;;;5102150;28;20134;-65
2021/08/29 01:27:20;;;;;;;16.73;9.70;;;;;;;;;;5105103;28;20075;-65
2021/08/29 01:29:47;;;;;;;18.70;10.43;;;;;;;;;;5096662;28;20138;-65
2021/08/29 01:32:14;;;;;;;19.42;10.20;;;;;;;;;;5099383;28;20134;-65
2021/08/29 01:34:42;;;;;;;18.08;10.65;;;;;;;;;;5093652;28;20127;-65
2021/08/29 01:37:11;;;;;;;21.08;10.25;;;;;;;;;;5103425;27;20048;-65
2021/08/29 01:39:38;;;;;;;15.23;9.85;;;;;;;;;;5096796;28;20106;-65
2021/08/29 01:42:04;;;;;;;16.47;10.13;;;;;;;;;;5101995;27;20082;-65
2021/08/29 01:44:31;;;;;;;18.05;9.82;;;;;;;;;;5099112;28;20047;-66
2021/08/29 01:46:58;;;;;;;16.23;9.30;;;;;;;;;;5097933;28;20485;-65
2021/08/29 01:49:24;;;;;;;16.07;10.33;;;;;;;;;;5097232;28;20413;-66
2021/08/29 01:51:51;;;;;;;17.88;9.65;;;;;;;;;;5095136;28;20071;-66
2021/08/29 01:54:18;;;;;;;19.95;9.15;;;;;;;;;;5093934;28;20135;-65
2021/08/29 01:57:01;;;;;;;16.65;9.48;;;;;;;;;;5098163;28;20075;-66
2021/08/29 01:59:28;;;;;;;14.13;9.32;;;;;;;;;;5100621;28;20093;-65
2021/08/29 02:01:55;;;;;;;16.17;9.10;;;;;;;;;;5100034;28;20459;-65
2021/08/29 02:04:23;;;;;;;20.55;9.43;;;;;;;;;;5097394;28;20043;-65
2021/08/29 02:06:56;;;;;;;15.02;9.40;;;;;;;;;;5098287;28;20075;-65
2021/08/29 02:09:26;;;;;;;19.33;9.88;;;;;;;;;;5098010;28;20094;-65
2021/08/29 02:11:53;;;;;;;18.23;9.35;;;;;;;;;;5100271;28;20146;-65
2021/08/29 02:14:20;;;;;;;;;;;;;;;;;;5102857;28;20364;-65
2021/08/29 02:16:48;;;;;;;19.63;10.00;;;;;;;;;;5092293;28;20007;-65
2021/08/29 02:19:18;;;;;;;12.95;8.70;;;;;;;;;;5097353;27;20075;-65
2021/08/29 02:21:45;;;;;;;14.73;8.75;;;;;;;;;;5098667;28;20139;-65
2021/08/29 02:24:12;;;;;;;17.45;9.85;;;;;;;;;;5099690;28;20082;-65
2021/08/29 02:26:38;;;;;;;16.65;8.82;;;;;;;;;;5100255;28;20132;-65
2021/08/29 02:29:08;;;;;;;15.95;9.50;;;;;;;;;;5100121;28;20055;-66
2021/08/29 02:31:34;;;;;;;16.83;8.57;;;;;;;;;;5100640;28;20097;-66
2021/08/29 02:34:00;;;;;;;20.15;9.82;;;;;;;;;;5095468;28;20077;-66
2021/08/29 02:36:28;;;;;;;17.50;9.15;;;;;;;;;;5094310;28;20079;-66
2021/08/29 02:38:54;;;;;;;12.23;8.43;;;;;;;;;;5099823;28;20146;-66
2021/08/29 02:41:22;;;;;;;19.98;8.30;;;;;;;;;;5105636;27;20065;-66
2021/08/29 02:43:50;;;;;;;17.17;8.98;;;;;;;;;;5098645;28;20139;-66
2021/08/29 02:46:16;;;;;;;18.42;8.98;;;;;;;;;;5095443;28;20135;-66
2021/08/29 02:48:46;;;;;;;18.83;8.68;;;;;;;;;;5099386;28;20051;-65
2021/08/29 02:51:14;;;;;;;15.73;8.02;;;;;;;;;;5098511;28;20083;-65
2021/08/29 02:53:41;;;;;;;13.20;8.50;;;;;;;;;;5101032;28;20057;-65
2021/08/29 02:56:08;;;;;;;17.17;9.27;;;;;;;;;;5095300;28;20054;-65
2021/08/29 02:58:35;;;;;;;14.32;8.23;;;;;;;;;;5096799;28;20130;-65
2021/08/29 03:01:02;;;;;;;12.00;8.10;;;;;;;;;;5097247;28;20134;-65
2021/08/29 03:03:29;;;;;;;16.83;8.23;;;;;;;;;;5102933;28;20046;-65
2021/08/29 03:05:56;;;;;;;18.63;8.70;;;;;;;;;;5098741;28;20040;-65
2021/08/29 03:08:22;;;;;;;11.68;8.70;;;;;;;;;;5097807;28;20087;-65
2021/08/29 03:10:49;;;;;;;16.65;8.80;;;;;;;;;;5098619;28;20071;-66
2021/08/29 03:13:16;;;;;;;11.73;8.13;;;;;;;;;;5093770;28;20090;-65
2021/08/29 03:15:43;;;;;;;12.35;7.85;;;;;;;;;;5096200;28;20142;-65
2021/08/29 03:18:10;;;;;;;22.48;8.40;;;;;;;;;;5094435;28;20048;-65
2021/08/29 03:20:37;;;;;;;14.17;8.37;;;;;;;;;;5097116;28;20043;-65
2021/08/29 03:23:03;;;;;;;11.40;7.70;;;;;;;;;;5098934;28;20127;-65
2021/08/29 03:25:30;;;;;;;12.05;7.78;;;;;;;;;;5095781;28;20325;-65
2021/08/29 03:27:56;;;;;;;12.88;8.73;;;;;;;;;;5102587;28;20078;-65
2021/08/29 03:30:23;;;;;;;17.15;7.90;;;;;;;;;;5095031;28;20048;-65
2021/08/29 03:32:50;;;;;;;14.73;7.90;;;;;;;;;;5094261;28;20139;-65
2021/08/29 03:35:17;;;;;;;14.23;8.03;;;;;;;;;;5100371;28;20067;-65
2021/08/29 03:37:44;;;;;;;13.73;7.80;;;;;;;;;;5097102;28;20151;-66
2021/08/29 03:40:10;;;;;;;11.75;7.97;;;;;;;;;;5100004;28;20562;-65
2021/08/29 03:42:37;;;;;;;17.10;7.35;;;;;;;;;;5107087;28;20139;-65
2021/08/29 03:45:05;;;;;;;11.40;7.43;;;;;;;;;;5118196;28;20085;-65
2021/08/29 03:47:31;;;;;;;13.45;7.53;;;;;;;;;;5118923;28;20132;-65
2021/08/29 03:49:58;;;;;;;12.50;7.93;;;;;;;;;;5119750;28;20078;-65
2021/08/29 03:52:25;;;;;;;12.43;7.75;;;;;;;;;;5120219;27;20043;-65
2021/08/29 03:54:51;;;;;;;12.15;7.40;;;;;;;;;;5119247;28;20142;-65
2021/08/29 03:57:18;;;;;;;13.50;7.22;;;;;;;;;;5120343;27;20447;-65
2021/08/29 03:59:44;;;;;;;8.63;6.65;;;;;;;;;;5119489;28;20161;-65
2021/08/29 04:02:11;;;;;;;10.43;7.07;;;;;;;;;;5120145;28;20163;-65
2021/08/29 04:04:38;;;;;;;11.40;7.95;;;;;;;;;;5121042;27;20061;-65
2021/08/29 04:07:05;;;;;;;10.43;7.15;;;;;;;;;;5116524;27;20065;-65
2021/08/29 04:09:33;;;;;;;14.17;7.07;;;;;;;;;;5118265;27;20039;-65
2021/08/29 04:11:59;;;;;;;;;;;;;;;;;;5124476;27;20075;-65
2021/08/29 04:14:27;;;;;;;11.20;7.07;;;;;;;;;;5124296;27;19969;-65
2021/08/29 04:16:55;;;;;;;12.07;7.30;;;;;;;;;;5119580;27;20085;-65
2021/08/29 04:19:22;;;;;;;12.05;7.47;;;;;;;;;;5108163;27;20067;-65
2021/08/29 04:21:49;;;;;;;13.90;7.10;;;;;;;;;;5117935;27;20079;-65
2021/08/29 04:24:16;;;;;;;11.97;7.40;;;;;;;;;;5123853;27;20043;-65
2021/08/29 04:26:42;;;;;;;9.13;6.68;;;;;;;;;;5120369;27;20122;-65
2021/08/29 04:29:09;;;;;;;11.55;6.88;;;;;;;;;;5125719;27;20166;-65
2021/08/29 04:31:38;;;;;;;7.68;6.35;;;;;;;;;;5117315;27;20079;-66
2021/08/29 04:34:06;;;;;;;10.30;6.38;;;;;;;;;;5117347;27;20482;-65
2021/08/29 04:36:34;;;;;;;12.18;7.10;;;;;;;;;;5121031;27;20109;-66
2021/08/29 04:39:06;;;;;;;10.77;6.45;;;;;;;;;;5124376;27;20071;-65
2021/08/29 04:41:32;;;;;;;10.20;7.13;;;;;;;;;;5122443;27;20079;-66
2021/08/29 04:43:59;;;;;;;11.32;6.97;;;;;;;;;;5122401;27;20143;-66
2021/08/29 04:46:25;;;;;;;10.85;6.93;;;;;;;;;;5116255;27;20101;-65
2021/08/29 04:48:52;;;;;;;9.15;6.65;;;;;;;;;;5122625;27;20075;-65
2021/08/29 04:51:18;;;;;;;9.40;6.80;;;;;;;;;;5121708;27;20137;-65
2021/08/29 04:53:46;;;;;;;10.30;7.03;;;;;;;;;;5120801;27;20086;-65
2021/08/29 04:56:12;;;;;;;15.68;6.88;;;;;;;;;;5124897;27;20076;-65
2021/08/29 04:58:39;;;;;;;9.65;6.10;;;;;;;;;;5120983;27;20126;-65
2021/08/29 05:01:05;;;;;;;9.55;7.00;;;;;;;;;;5123337;27;20078;-65
2021/08/29 05:03:34;;;;;;;9.10;6.40;;;;;;;;;;5124333;27;20040;-65
2021/08/29 05:06:01;;;;;;;8.40;6.38;;;;;;;;;;5119767;27;20043;-65
2021/08/29 05:08:27;;;;;;;9.03;6.23;;;;;;;;;;5116663;27;20072;-65
2021/08/29 05:10:54;;;;;;;9.93;6.82;;;;;;;;;;5118843;27;20075;-65
2021/08/29 05:13:20;;;;;;;11.35;6.40;;;;;;;;;;5118538;27;20127;-65
2021/08/29 05:15:47;;;;;;;9.30;6.55;;;;;;;;;;5121441;27;20134;-65
2021/08/29 05:18:13;;;;;;;11.20;6.53;;;;;;;;;;5116101;27;20142;-65
2021/08/29 05:20:40;;;;;;;8.73;5.95;;;;;;;;;;5121713;27;20381;-65
2021/08/29 05:23:26;;;;;;;9.25;7.07;;;;;;;;;;5123600;27;20047;-65
2021/08/29 05:25:53;;;;;;;8.63;6.28;;;;;;;;;;5120504;27;20179;-65
2021/08/29 05:28:20;;;;;;;7.50;5.65;;;;;;;;;;5126895;27;20118;-65
2021/08/29 05:30:46;;;;;;;9.47;7.00;;;;;;;;;;5120764;27;20489;-65
2021/08/29 05:33:13;;;;;;;12.52;6.30;;;;;;;;;;5117241;27;20401;-64
2021/08/29 05:35:39;;;;;;;9.52;6.40;;;;;;;;;;5118301;27;20092;-64
2021/08/29 05:38:06;;;;;;;9.35;5.85;;;;;;;;;;5118098;27;20142;-64
2021/08/29 05:40:32;;;;;;;8.88;6.05;;;;;;;;;;5118276;27;20078;-64
2021/08/29 05:42:58;;;;;;;17.17;6.28;;;;;;;;;;5117823;27;20087;-65
2021/08/29 05:45:25;;;;;;;8.00;6.00;;;;;;;;;;5122394;27;20093;-65
2021/08/29 05:47:52;;;;;;;12.50;5.75;;;;;;;;;;5120966;27;20075;-65
2021/08/29 05:50:18;;;;;;;10.13;6.07;;;;;;;;;;5113375;27;20049;-65
2021/08/29 05:52:45;;;;;;;10.60;5.78;;;;;;;;;;5119105;27;20122;-65
2021/08/29 05:55:11;;;;;;;10.55;6.43;;;;;;;;;;5120075;27;20565;-64
2021/08/29 05:57:38;;;;;;;10.63;6.43;;;;;;;;;;5098802;27;20130;-64
2021/08/29 06:00:05;;;;;;;8.35;6.05;;;;;;;;;;5114602;27;20080;-64
2021/08/29 06:02:32;;;;;;;8.60;6.15;;;;;;;;;;5103475;27;20126;-64
2021/08/29 06:05:00;;;;;;;9.38;5.65;;;;;;;;;;5116701;27;20043;-64
2021/08/29 06:07:26;;;;;;;8.23;5.45;;;;;;;;;;5116734;27;20131;-64
2021/08/29 06:09:53;;;;;;;9.55;5.78;;;;;;;;;;5117619;27;20091;-64
2021/08/29 06:12:19;;;;;;;6.57;5.03;;;;;;;;;;5121420;27;20086;-64
2021/08/29 06:14:46;;;;;;;9.33;6.10;;;;;;;;;;5119008;27;20104;-64
2021/08/29 06:17:12;;;;;;;9.30;6.25;;;;;;;;;;5117230;27;20044;-64
2021/08/29 06:19:39;;;;;;;7.75;5.50;;;;;;;;;;5122091;27;20466;-64
2021/08/29 06:22:05;;;;;;;7.65;5.75;;;;;;;;;;5118303;27;20048;-64
2021/08/29 06:24:32;;;;;;;9.55;5.93;;;;;;;;;;5125233;27;20078;-64
2021/08/29 06:26:58;;;;;;;7.97;5.95;;;;;;;;;;5118516;27;20075;-64
2021/08/29 06:29:25;;;;;;;6.90;5.40;;;;;;;;;;5123248;27;20101;-64
2021/08/29 06:31:51;;;;;;;9.75;6.20;;;;;;;;;;5118536;27;20142;-64
2021/08/29 06:34:18;;;;;;;8.00;6.00;;;;;;;;;;5125451;27;20154;-64
2021/08/29 06:36:44;;;;;;;10.48;6.03;;;;;;;;;;5125471;27;20562;-64
2021/08/29 06:39:10;;;;;;;8.48;6.00;;;;;;;;;;5114557;27;20130;-64
2021/08/29 06:41:37;;;;;;;10.30;6.15;;;;;;;;;;5117013;27;20043;-64
2021/08/29 06:44:04;;;;;;;11.77;6.05;;;;;;;;;;5121248;27;20102;-64
2021/08/29 06:46:32;;;;;;;8.32;6.05;;;;;;;;;;5113594;27;20051;-64
2021/08/29 06:48:58;;;;;;;6.57;5.63;;;;;;;;;;5114177;27;20082;-64
2021/08/29 06:51:25;;;;;;;9.57;6.20;;;;;;;;;;5120516;27;20649;-64
2021/08/29 06:53:53;;;;;;;7.93;6.07;;;;;;;;;;5120119;27;20062;-64
2021/08/29 06:56:20;;;;;;;9.50;6.30;;;;;;;;;;5115589;27;20574;-64
2021/08/29 06:58:46;;;;;;;11.90;6.80;;;;;;;;;;5118292;27;20062;-64
2021/08/29 07:01:13;;;;;;;10.57;6.30;;;;;;;;;;5123158;27;20069;-64
2021/08/29 07:03:40;;;;;;;10.13;6.30;;;;;;;;;;5116302;27;20050;-64
2021/08/29 07:06:06;;;;;;;13.57;6.10;;;;;;;;;;5119556;28;20051;-64
2021/08/29 07:08:33;;;;;;;10.50;5.78;;;;;;;;;;5117749;27;20110;-64
2021/08/29 07:11:00;;;;;;;8.68;5.65;;;;;;;;;;5121847;28;20073;-65
2021/08/29 07:13:26;;;;;;;7.63;5.85;;;;;;;;;;5121719;28;20130;-64
2021/08/29 07:15:53;;;;;;;11.35;5.40;;;;;;;;;;5117903;28;20134;-64
2021/08/29 07:18:19;;;;;;;6.50;5.53;;;;;;;;;;5122174;28;20047;-64
2021/08/29 07:20:46;;;;;;;7.70;5.18;;;;;;;;;;5119493;28;20328;-64
2021/08/29 07:23:12;;;;;;;11.10;5.23;;;;;;;;;;5119200;27;20048;-64
2021/08/29 07:25:39;;;;;;;8.48;6.18;;;;;;;;;;5111998;27;20374;-64
2021/08/29 07:28:06;;;;;;;8.20;5.40;;;;;;;;;;5117728;27;20078;-64
2021/08/29 07:30:33;;;;;;;;;;;;;;;;;;5117000;27;20122;-64
2021/08/29 07:32:59;;;;;;;8.70;5.38;;;;;;;;;;5118254;27;20370;-65
2021/08/29 07:35:26;;;;;;;8.05;5.15;;;;;;;;;;5117365;27;20138;-64
2021/08/29 07:37:53;;;;;;;6.83;5.03;;;;;;;;;;5119378;27;20051;-65
2021/08/29 07:40:20;;;;;;;6.30;4.78;;;;;;;;;;5124510;27;20364;-64
2021/08/29 07:42:47;;;;;;;7.65;5.03;;;;;;;;;;5119904;27;20078;-65
2021/08/29 07:45:14;;;;;;;6.80;5.15;;;;;;;;;;5121620;27;20122;-65
2021/08/29 07:47:41;;;;;;;7.88;5.60;;;;;;;;;;5123913;27;20089;-65
2021/08/29 07:50:08;;;;;;;8.02;5.20;;;;;;;;;;5119773;27;20513;-65
2021/08/29 07:52:34;;;;;;;5.85;4.75;;;;;;;;;;5119247;27;20071;-65
2021/08/29 07:55:01;;;;;;;8.10;4.70;;;;;;;;;;5122735;27;20054;-65
2021/08/29 07:57:27;;;;;;;6.68;5.05;;;;;;;;;;5120669;27;20086;-64
2021/08/29 07:59:54;;;;;;;6.78;4.85;;;;;;;;;;5122182;27;20134;-65
2021/08/29 08:02:20;;;;;;;5.85;4.80;;;;;;;;;;5117381;27;20085;-65
2021/08/29 08:04:47;;;;;;;7.65;4.75;;;;;;;;;;5119414;27;20156;-64
2021/08/29 08:07:13;;;;;;;11.93;4.97;;;;;;;;;;5121277;27;20122;-65
2021/08/29 08:09:40;;;;;;;5.97;4.63;;;;;;;;;;5125119;27;20463;-65
2021/08/29 08:12:06;;;;;;;7.90;4.78;;;;;;;;;;5122699;27;20130;-65
2021/08/29 08:14:33;;;;;;;8.15;5.32;;;;;;;;;;5127551;27;20078;-65
2021/08/29 08:16:59;;;;;;;9.50;5.17;;;;;;;;;;5121332;27;20058;-65
2021/08/29 08:19:26;;;;;;;5.90;4.63;;;;;;;;;;5119535;27;20084;-65
2021/08/29 08:21:52;;;;;;;6.85;4.47;;;;;;;;;;5123061;27;20134;-65
2021/08/29 08:24:19;;;;;;;6.35;4.55;;;;;;;;;;5121953;27;20118;-65
2021/08/29 08:26:45;;;;;;;7.45;4.72;;;;;;;;;;5119704;27;20451;-65
2021/08/29 08:29:12;;;;;;;6.43;4.60;;;;;;;;;;5120244;27;20558;-65
2021/08/29 08:31:38;;;;;;;5.55;3.85;;;;;;;;;;5122928;27;20505;-65
2021/08/29 08:34:05;;;;;;;6.28;4.75;;;;;;;;;;5119519;27;20046;-65
2021/08/29 08:36:31;;;;;;;6.88;4.72;;;;;;;;;;5120844;27;20139;-65
2021/08/29 08:39:00;;;;;;;5.97;4.70;;;;;;;;;;5123261;27;20092;-65
2021/08/29 08:41:26;;;;;;;6.82;4.60;;;;;;;;;;5120746;27;20079;-65
2021/08/29 08:43:53;;;;;;;8.27;5.32;;;;;;;;;;5113604;27;20579;-65
2021/08/29 08:46:21;;;;;;;7.13;4.97;;;;;;;;;;5120653;27;20050;-65
2021/08/29 08:48:49;;;;;;;9.00;4.78;;;;;;;;;;5116070;27;20063;-65
2021/08/29 08:51:15;;;;;;;;;;;;;;;;;;5120685;27;20139;-65
2021/08/29 08:53:42;;;;;;;6.78;4.72;;;;;;;;;;5121044;27;19955;-65
2021/08/29 08:56:09;;;;;;;5.82;4.55;;;;;;;;;;5118221;27;20154;-65
2021/08/29 08:58:39;;;;;;;9.83;4.97;;;;;;;;;;5121329;27;20134;-65
2021/08/29 09:01:07;;;;;;;8.63;4.93;;;;;;;;;;5121684;27;20141;-65
2021/08/29 09:03:34;;;;;;;7.88;4.88;;;;;;;;;;5103106;27;20134;-65
2021/08/29 09:06:02;;;;;;;6.78;5.03;;;;;;;;;;5121764;27;20050;-65
2021/08/29 09:08:28;;;;;;;7.93;5.10;;;;;;;;;;5115739;27;20042;-65
2021/08/29 09:10:55;;;;;;;10.98;5.38;;;;;;;;;;5120199;27;20075;-65
2021/08/29 09:13:21;;;;;;;9.63;5.15;;;;;;;;;;5119355;27;20044;-65
2021/08/29 09:15:48;;;;;;;8.15;4.97;;;;;;;;;;5121907;27;20169;-65
2021/08/29 09:18:14;;;;;;;8.55;4.97;;;;;;;;;;5118366;27;20746;-65
2021/08/29 09:20:41;;;;;;;9.43;5.53;;;;;;;;;;5115969;27;20619;-65
2021/08/29 09:23:11;;;;;;;9.48;5.20;;;;;;;;;;5121119;27;20065;-65
2021/08/29 09:25:43;;;;;;;8.38;5.13;;;;;;;;;;5123578;27;20471;-65
2021/08/29 09:28:14;;;;;;;12.07;5.47;;;;;;;;;;5120550;27;20047;-65
2021/08/29 09:30:42;;;;;;;7.68;5.10;;;;;;;;;;5119063;27;20070;-65
2021/08/29 09:33:08;;;;;;;7.18;5.40;;;;;;;;;;5120761;27;20447;-65
2021/08/29 09:35:35;;;;;;;8.73;5.17;;;;;;;;;;5119797;27;20142;-65
2021/08/29 09:38:09;;;;;;;6.40;4.95;;;;;;;;;;5123359;27;20122;-65
2021/08/29 09:40:36;;;;;;;6.70;4.80;;;;;;;;;;5120572;27;20075;-65
2021/08/29 09:43:04;;;;;;;7.35;5.55;;;;;;;;;;5121089;27;20147;-65
2021/08/29 09:45:32;;;;;;;7.88;5.35;;;;;;;;;;5121442;27;20506;-65
2021/08/29 09:48:03;;;;;;;7.65;4.82;;;;;;;;;;5105393;27;20088;-65
2021/08/29 09:50:31;;;;;;;8.02;5.53;;;;;;;;;;5116915;27;20131;-65
2021/08/29 09:53:05;;;;;;;7.80;4.82;;;;;;;;;;5119663;27;20198;-65
2021/08/29 09:55:33;;;;;;;7.22;5.22;;;;;;;;;;5118215;27;20142;-64
2021/08/29 09:58:00;;;;;;;7.40;5.20;;;;;;;;;;5122622;27;20051;-65
2021/08/29 10:00:26;;;;;;;7.95;5.47;;;;;;;;;;5116106;27;20051;-65
2021/08/29 10:03:02;;;;;;;10.38;5.30;;;;;;;;;;5118579;27;20419;-65
2021/08/29 10:05:29;;;;;;;10.50;5.53;;;;;;;;;;5118569;27;20124;-65
2021/08/29 10:08:04;;;;;;;7.50;5.20;;;;;;;;;;5123609;27;20051;-65
2021/08/29 10:10:32;;;;;;;10.10;5.00;;;;;;;;;;5118796;27;20159;-65
2021/08/29 10:13:00;;;;;;;16.48;5.45;;;;;;;;;;5115548;27;20170;-65
2021/08/29 10:15:26;;;;;;;7.55;4.80;;;;;;;;;;5119214;27;20127;-65
2021/08/29 10:17:56;;;;;;;8.07;5.32;;;;;;;;;;5120127;27;20078;-65
2021/08/29 10:20:25;;;;;;;9.88;4.88;;;;;;;;;;5123662;27;20239;-65
2021/08/29 10:22:51;;;;;;;8.63;4.60;;;;;;;;;;5118963;27;20080;-65
2021/08/29 10:25:19;;;;;;;5.55;4.35;;;;;;;;;;5119550;27;20047;-65
2021/08/29 10:27:48;;;;;;;10.07;5.25;;;;;;;;;;5131448;27;20086;-65
2021/08/29 10:30:15;;;;;;;6.00;4.72;;;;;;;;;;5120202;27;20350;-65
2021/08/29 10:32:46;;;;;;;8.00;4.25;;;;;;;;;;5117861;27;20138;-65
2021/08/29 10:35:13;;;;;;;7.85;4.85;;;;;;;;;;5124539;27;20054;-65
2021/08/29 10:37:41;;;;;;;7.20;4.90;;;;;;;;;;5119765;27;20617;-65
2021/08/29 10:40:08;;;;;;;6.93;4.82;;;;;;;;;;5118081;27;20828;-65
2021/08/29 10:42:35;;;;;;;;;;;;;;;;;;5115273;27;20511;-65
2021/08/29 10:45:02;;;;;;;7.78;5.22;;;;;;;;;;5118377;27;20002;-65
2021/08/29 10:47:29;;;;;;;11.85;4.97;;;;;;;;;;5116299;27;20039;-65
2021/08/29 10:49:55;;;;;;;8.40;4.43;;;;;;;;;;5109043;28;20051;-65
2021/08/29 10:52:22;;;;;;;6.82;4.63;;;;;;;;;;5110066;27;20118;-65
2021/08/29 10:54:55;;;;;;;5.90;4.73;;;;;;;;;;5117510;27;20139;-65
2021/08/29 10:57:32;;;;;;;6.15;4.57;;;;;;;;;;5122937;27;20082;-65
2021/08/29 11:00:00;;;;;;;7.35;5.40;;;;;;;;;;5118333;27;20535;-65
2021/08/29 11:02:33;;;;;;;6.85;5.55;;;;;;;;;;5119665;27;20607;-65
2021/08/29 11:05:01;;;;;;;13.32;5.97;;;;;;;;;;5118670;27;20043;-65
2021/08/29 11:07:35;;;;;;;7.05;5.00;;;;;;;;;;5119828;28;20078;-64
2021/08/29 11:10:02;;;;;;;6.40;4.82;;;;;;;;;;5113875;27;20479;-65
2021/08/29 11:12:30;;;;;;;6.63;5.05;;;;;;;;;;5120892;27;20240;-65
2021/08/29 11:14:59;;;;;;;7.22;4.95;;;;;;;;;;5122521;27;20157;-65
2021/08/29 11:17:35;;;;;;;6.65;5.47;;;;;;;;;;5128759;27;20081;-65
2021/08/29 11:20:02;;;;;;;7.50;5.18;;;;;;;;;;5122528;27;20415;-65
2021/08/29 11:22:36;;;;;;;6.90;4.93;;;;;;;;;;5122321;27;20096;-65
2021/08/29 11:25:14;;;;;;;6.65;5.18;;;;;;;;;;5122716;27;20494;-65
2021/08/29 11:27:42;;;;;;;7.05;5.25;;;;;;;;;;5126469;27;20134;-65
2021/08/29 11:30:21;;;;;;;7.82;5.57;;;;;;;;;;5121948;27;20087;-65
2021/08/29 11:32:52;;;;;;;7.95;5.00;;;;;;;;;;5117614;27;20108;-65
2021/08/29 11:35:29;;;;;;;8.63;5.63;;;;;;;;;;5120970;27;20043;-65
2021/08/29 11:38:03;;;;;;;6.68;5.38;;;;;;;;;;5118515;27;20134;-65
2021/08/29 11:40:48;;;;;;;6.43;5.57;;;;;;;;;;5120543;27;20078;-65
2021/08/29 11:43:20;;;;;;;11.50;6.43;;;;;;;;;;5118902;27;20063;-65
2021/08/29 11:45:56;;;;;;;9.43;6.05;;;;;;;;;;5125679;27;20047;-65
2021/08/29 11:48:24;;;;;;;11.10;5.50;;;;;;;;;;5117514;27;20042;-65
2021/08/29 11:50:50;;;;;;;7.15;5.80;;;;;;;;;;5118462;27;20075;-65
2021/08/29 11:53:17;;;;;;;7.78;5.80;;;;;;;;;;5118450;27;20043;-65
2021/08/29 11:55:44;;;;;;;9.00;5.70;;;;;;;;;;5116802;27;20137;-65
2021/08/29 11:58:19;;;;;;;8.38;5.85;;;;;;;;;;5104829;27;20126;-65
2021/08/29 12:00:49;;;;;;;8.20;5.80;;;;;;;;;;5120120;27;20206;-65
2021/08/29 12:03:16;;;;;;;7.18;5.00;;;;;;;;;;5120004;27;20051;-65
2021/08/29 12:05:57;;;;;;;8.48;5.22;;;;;;;;;;5119713;27;20134;-65
2021/08/29 12:08:29;;;;;;;12.27;5.75;;;;;;;;;;5119122;27;20041;-65
2021/08/29 12:10:56;;;;;;;7.30;5.32;;;;;;;;;;5117469;27;20079;-65
2021/08/29 12:13:22;;;;;;;15.00;5.95;;;;;;;;;;5123956;27;20127;-65
2021/08/29 12:15:49;;;;;;;8.87;5.53;;;;;;;;;;5114288;27;20122;-65
2021/08/29 12:18:16;;;;;;;9.55;5.32;;;;;;;;;;5120919;27;20312;-65
2021/08/29 12:20:42;;;;;;;6.75;5.05;;;;;;;;;;5122901;27;20122;-65
2021/08/29 12:23:09;;;;;;;6.40;5.15;;;;;;;;;;5121060;27;20083;-65
2021/08/29 12:25:37;;;;;;;6.13;5.10;;;;;;;;;;5116809;27;20054;-65
2021/08/29 12:28:11;;;;;;;6.72;5.43;;;;;;;;;;5119389;27;20706;-65
2021/08/29 12:30:38;;;;;;;8.02;5.45;;;;;;;;;;5123989;27;20203;-65
2021/08/29 12:33:15;;;;;;;6.35;5.10;;;;;;;;;;5120544;27;20759;-65
2021/08/29 12:35:43;;;;;;;;;;;;;;;;;;5118762;27;20069;-65
2021/08/29 12:38:24;;;;;;;6.80;4.95;;;;;;;;;;5121016;27;20068;-65
2021/08/29 12:40:51;;;;;;;8.07;5.03;;;;;;;;;;5122298;27;20131;-65
2021/08/29 12:43:18;;;;;;;5.95;5.35;;;;;;;;;;5121402;27;20134;-65
2021/08/29 12:45:44;;;;;;;6.03;4.70;;;;;;;;;;5123223;27;20100;-65
2021/08/29 12:48:11;;;;;;;6.73;5.43;;;;;;;;;;5124254;27;20098;-65
2021/08/29 12:50:39;;;;;;;6.10;5.15;;;;;;;;;;5116202;27;20380;-65
2021/08/29 12:53:05;;;;;;;;;;;;;;;;;;5116721;27;20071;-65
2021/08/29 12:55:32;;;;;;;6.70;5.50;;;;;;;;;;5117067;27;20351;-65
2021/08/29 12:58:00;;;;;;;6.78;5.10;;;;;;;;;;5103405;27;20594;-65
2021/08/29 13:00:46;;;;;;;7.93;4.78;;;;;;;;;;5121218;27;20109;-65
2021/08/29 13:03:14;;;;;;;8.43;5.15;;;;;;;;;;5123637;27;20146;-65
2021/08/29 13:05:45;;;;;;;9.55;4.68;;;;;;;;;;5117790;27;20610;-65
2021/08/29 13:08:12;;;;;;;6.15;4.97;;;;;;;;;;5122745;27;20089;-65
2021/08/29 13:10:39;;;;;;;7.45;5.25;;;;;;;;;;5123220;27;20055;-65
2021/08/29 13:13:07;;;;;;;8.68;4.97;;;;;;;;;;5120538;27;20171;-65
2021/08/29 13:15:34;;;;;;;7.60;4.85;;;;;;;;;;5114772;27;20104;-65
2021/08/29 13:18:01;;;;;;;9.43;5.05;;;;;;;;;;5119117;27;20139;-65
2021/08/29 13:20:35;;;;;;;11.10;5.03;;;;;;;;;;5127612;27;20806;-65
2021/08/29 13:23:01;;;;;;;6.10;4.75;;;;;;;;;;5117779;27;20079;-65
2021/08/29 13:25:29;;;;;;;5.97;4.93;;;;;;;;;;5122278;27;20130;-65
2021/08/29 13:27:55;;;;;;;;;;;;;;;;;;5120456;27;20075;-65
2021/08/29 13:30:32;;;;;;;11.60;5.00;;;;;;;;;;5122520;27;20330;-66
2021/08/29 13:32:59;;;;;;;6.35;4.60;;;;;;;;;;5122928;27;20146;-65
2021/08/29 13:35:30;;;;;;;7.55;4.88;;;;;;;;;;5117870;27;20081;-66
2021/08/29 13:37:58;;;;;;;6.18;5.28;;;;;;;;;;5120406;27;20051;-65
2021/08/29 13:40:26;;;;;;;8.65;4.80;;;;;;;;;;5118515;27;20051;-65
2021/08/29 13:42:55;;;;;;;6.93;5.22;;;;;;;;;;5116809;27;20417;-65
2021/08/29 13:45:23;;;;;;;7.05;5.22;;;;;;;;;;5119400;27;20104;-65
2021/08/29 13:47:50;;;;;;;9.15;5.28;;;;;;;;;;5120172;27;20047;-66
2021/08/29 13:50:16;;;;;;;8.38;5.03;;;;;;;;;;5115654;27;20569;-65
2021/08/29 13:52:43;;;;;;;7.38;5.07;;;;;;;;;;5123012;27;20125;-66
2021/08/29 13:55:14;;;;;;;6.68;5.00;;;;;;;;;;5118996;27;20107;-66
2021/08/29 13:57:41;;;;;;;5.53;4.63;;;;;;;;;;5115240;27;20134;-66
2021/08/29 14:00:08;;;;;;;6.07;5.25;;;;;;;;;;5123969;27;20130;-65
2021/08/29 14:02:35;;;;;;;6.30;4.82;;;;;;;;;;5124566;27;20047;-65
2021/08/29 14:05:02;;;;;;;8.13;4.88;;;;;;;;;;5117240;27;20050;-65
2021/08/29 14:07:29;;;;;;;8.70;4.68;;;;;;;;;;5118476;27;20126;-65
2021/08/29 14:09:55;;;;;;;8.98;5.00;;;;;;;;;;5116136;27;20502;-65
2021/08/29 14:12:22;;;;;;;8.30;5.25;;;;;;;;;;5125548;27;20114;-65
2021/08/29 14:14:48;;;;;;;5.63;4.88;;;;;;;;;;5119971;27;20051;-65
2021/08/29 14:17:14;;;;;;;8.15;4.75;;;;;;;;;;5118496;27;20131;-65
2021/08/29 14:19:41;;;;;;;7.03;5.28;;;;;;;;;;5118318;27;20134;-66
2021/08/29 14:22:08;;;;;;;6.93;4.63;;;;;;;;;;5116735;27;20486;-65
2021/08/29 14:24:37;;;;;;;5.85;4.90;;;;;;;;;;5117768;27;20543;-66
2021/08/29 14:27:04;;;;;;;6.78;5.10;;;;;;;;;;5122550;27;20764;-65
2021/08/29 14:29:31;;;;;;;6.10;5.00;;;;;;;;;;5120041;27;20130;-65
2021/08/29 14:31:58;;;;;;;6.70;5.32;;;;;;;;;;5116481;27;20130;-66
2021/08/29 14:34:24;;;;;;;;;;;;;;;;;;5117299;27;20130;-65
2021/08/29 14:36:51;;;;;;;6.20;5.00;;;;;;;;;;5113125;27;19970;-65
2021/08/29 14:39:17;;;;;;;8.27;4.85;;;;;;;;;;5119460;27;20082;-65
2021/08/29 14:41:44;;;;;;;9.00;5.40;;;;;;;;;;5117456;27;20550;-65